createdAt,value
2022-08-29T06:54:44.246Z,264.38
2022-08-29T06:55:44.915Z,264.38
2022-08-29T06:56:44.535Z,258.75
2022-08-29T06:57:44.487Z,236.25
2022-08-29T06:58:44.482Z,253.12
2022-08-29T06:59:44.509Z,258.75
2022-08-29T07:00:49.030Z,258.75
2022-08-29T07:01:44.499Z,258.75
2022-08-29T07:02:44.490Z,258.75
2022-08-29T07:03:44.447Z,258.75
2022-08-29T07:04:44.392Z,253.12
2022-08-29T07:05:44.587Z,236.25
2022-08-29T07:06:44.859Z,230.62
2022-08-29T07:07:44.514Z,202.50
2022-08-29T07:08:55.512Z,208.12
2022-08-29T07:09:44.349Z,185.62
2022-08-29T07:10:44.710Z,163.12
2022-08-29T07:11:44.319Z,196.88
2022-08-29T07:12:44.449Z,219.38
2022-08-29T07:13:44.287Z,241.88
2022-08-29T07:14:44.315Z,253.12
2022-08-29T07:15:44.339Z,247.50
2022-08-29T07:16:44.264Z,258.75
2022-08-29T07:17:44.249Z,258.75
2022-08-29T07:18:44.238Z,258.75
2022-08-29T07:19:44.220Z,270.00
2022-08-29T07:20:44.224Z,286.88
2022-08-29T07:21:44.190Z,292.50
2022-08-29T07:22:44.193Z,286.88
2022-08-29T07:23:44.195Z,292.50
2022-08-29T07:24:44.140Z,275.62
2022-08-29T07:25:44.204Z,264.38
2022-08-29T07:26:44.143Z,270.00
2022-08-29T07:27:44.116Z,270.00
2022-08-29T07:28:46.171Z,281.25
2022-08-29T07:30:19.422Z,275.62
2022-08-29T07:30:44.520Z,258.75
2022-08-29T07:31:44.277Z,230.62
2022-08-29T07:32:44.076Z,219.38
2022-08-29T07:35:31.836Z,270.00
2022-08-29T07:36:31.794Z,292.50
2022-08-29T07:37:31.852Z,298.12
2022-08-29T07:38:31.704Z,303.75
2022-08-29T07:39:31.710Z,298.12
2022-08-29T07:40:31.729Z,286.88
2022-08-29T07:41:31.665Z,286.88
2022-08-29T07:42:31.935Z,286.88
2022-08-29T07:43:31.798Z,281.25
2022-08-29T07:44:34.349Z,292.50
2022-08-29T07:45:31.582Z,286.88
2022-08-29T07:46:31.709Z,292.50
2022-08-29T07:47:31.586Z,286.88
2022-08-29T07:48:31.517Z,253.12
2022-08-29T07:49:40.647Z,247.50
2022-08-29T07:50:31.502Z,253.12
2022-08-29T07:51:31.488Z,253.12
2022-08-29T07:52:31.489Z,253.12
2022-08-29T07:53:31.469Z,258.75
2022-08-29T07:54:31.451Z,258.75
2022-08-29T07:55:31.438Z,275.62
2022-08-29T07:56:34.534Z,270.00
2022-08-29T07:57:31.435Z,275.62
2022-08-29T07:58:31.417Z,275.62
2022-08-29T07:59:31.398Z,281.25
2022-08-29T08:00:31.376Z,270.00
2022-08-29T08:01:31.387Z,258.75
2022-08-29T08:02:31.465Z,253.12
2022-08-29T08:03:31.335Z,241.88
2022-08-29T08:04:31.322Z,253.12
2022-08-29T08:05:31.323Z,258.75
2022-08-29T08:06:31.295Z,275.62
2022-08-29T08:07:31.327Z,292.50
2022-08-29T08:08:31.260Z,292.50
2022-08-29T08:09:32.382Z,298.12
2022-08-29T08:10:32.375Z,298.12
2022-08-29T08:11:32.400Z,298.12
2022-08-29T08:12:32.397Z,309.38
2022-08-29T08:13:32.340Z,343.12
2022-08-29T08:14:35.231Z,331.88
2022-08-29T08:15:32.331Z,320.62
2022-08-29T08:16:32.324Z,303.75
2022-08-29T08:17:32.297Z,298.12
2022-08-29T08:18:32.295Z,264.38
2022-08-29T08:19:32.262Z,281.25
2022-08-29T08:20:33.288Z,298.12
2022-08-29T08:21:32.254Z,292.50
2022-08-29T08:22:32.640Z,298.12
2022-08-29T08:23:33.251Z,281.25
2022-08-29T08:24:32.928Z,281.25
2022-08-29T08:25:32.249Z,286.88
2022-08-29T08:26:32.188Z,275.62
2022-08-29T08:27:32.307Z,275.62
2022-08-29T08:28:32.235Z,281.25
2022-08-29T08:29:32.199Z,286.88
2022-08-29T08:30:35.532Z,292.50
2022-08-29T08:31:32.226Z,281.25
2022-08-29T08:32:32.217Z,286.88
2022-08-29T08:33:35.000Z,292.50
2022-08-29T08:34:35.662Z,303.75
2022-08-29T08:35:32.092Z,292.50
2022-08-29T08:36:32.069Z,292.50
2022-08-29T08:37:32.099Z,298.12
2022-08-29T08:38:32.049Z,286.88
2022-08-29T08:39:32.050Z,281.25
2022-08-29T08:40:32.139Z,286.88
2022-08-29T08:41:32.021Z,281.25
2022-08-29T08:42:32.038Z,264.38
2022-08-29T08:43:32.000Z,270.00
2022-08-29T08:44:35.048Z,270.00
2022-08-29T08:45:31.966Z,270.00
2022-08-29T08:46:32.027Z,270.00
2022-08-29T08:47:33.395Z,286.88
2022-08-29T08:48:31.950Z,292.50
2022-08-29T08:49:31.920Z,281.25
2022-08-29T08:50:31.909Z,292.50
2022-08-29T08:51:31.936Z,292.50
2022-08-29T08:52:31.881Z,315.00
2022-08-29T08:53:32.091Z,275.62
2022-08-29T08:54:31.914Z,326.25
2022-08-29T08:55:31.860Z,315.00
2022-08-29T08:56:31.841Z,303.75
2022-08-29T08:57:31.880Z,292.50
2022-08-29T08:58:31.875Z,286.88
2022-08-29T08:59:31.861Z,309.38
2022-08-29T09:00:31.802Z,298.12
2022-08-29T09:01:31.796Z,292.50
2022-08-29T09:02:31.841Z,303.75
2022-08-29T09:03:31.920Z,298.12
2022-08-29T09:04:31.726Z,286.88
2022-08-29T09:05:31.707Z,292.50
2022-08-29T09:06:31.699Z,292.50
2022-08-29T09:07:31.705Z,286.88
2022-08-29T09:08:31.675Z,303.75
2022-08-29T09:09:31.666Z,309.38
2022-08-29T09:10:31.647Z,320.62
2022-08-29T09:11:31.652Z,315.00
2022-08-29T09:12:31.644Z,309.38
2022-08-29T09:13:31.634Z,298.12
2022-08-29T09:14:31.659Z,298.12
2022-08-29T09:15:32.827Z,298.12
2022-08-29T09:16:31.661Z,303.75
2022-08-29T09:17:31.753Z,309.38
2022-08-29T09:18:32.026Z,309.38
2022-08-29T09:19:31.585Z,298.12
2022-08-29T09:20:31.557Z,275.62
2022-08-29T09:21:44.411Z,270.00
2022-08-29T09:22:33.551Z,264.38
2022-08-29T09:23:31.543Z,270.00
2022-08-29T09:24:31.500Z,270.00
2022-08-29T09:25:31.534Z,281.25
2022-08-29T09:26:31.465Z,281.25
2022-08-29T09:27:31.864Z,315.00
2022-08-29T09:28:31.487Z,315.00
2022-08-29T09:29:31.473Z,303.75
2022-08-29T09:30:31.420Z,309.38
2022-08-29T09:31:31.453Z,298.12
2022-08-29T09:32:33.955Z,298.12
2022-08-29T09:33:35.641Z,303.75
2022-08-29T09:34:45.188Z,303.75
2022-08-29T09:39:39.880Z,309.38
2022-08-29T09:40:39.174Z,315.00
2022-08-29T09:41:40.466Z,309.38
2022-08-29T09:42:41.302Z,309.38
2022-08-29T09:43:40.400Z,303.75
2022-08-29T10:09:37.328Z,337.50
2022-08-29T10:10:38.832Z,286.88
2022-08-29T10:11:39.510Z,281.25
2022-08-29T10:12:37.784Z,281.25
2022-08-29T10:13:37.488Z,292.50
2022-08-29T10:48:12.155Z,298.12
2022-08-29T10:49:11.289Z,326.25
2022-08-29T10:50:21.870Z,348.75
2022-08-29T10:51:11.408Z,343.12
2022-08-29T10:52:11.131Z,388.12
2022-08-29T10:53:11.096Z,371.25
2022-08-29T10:54:11.093Z,371.25
2022-08-29T10:55:11.053Z,416.25
2022-08-29T10:56:11.104Z,405.00
2022-08-29T10:57:11.030Z,410.62
2022-08-29T10:58:12.482Z,405.00
2022-08-29T10:59:11.015Z,393.75
2022-08-29T11:00:11.009Z,388.12
2022-08-29T11:01:11.000Z,416.25
2022-08-29T11:02:11.019Z,438.75
2022-08-29T11:03:10.998Z,405.00
2022-08-29T11:04:12.144Z,382.50
2022-08-29T11:05:12.073Z,399.38
2022-08-29T11:06:12.073Z,365.62
2022-08-29T11:07:12.090Z,410.62
2022-08-29T11:08:16.008Z,371.25
2022-08-29T11:09:12.039Z,348.75
2022-08-29T11:10:12.015Z,303.75
2022-08-29T11:11:12.011Z,292.50
2022-08-29T11:12:12.511Z,298.12
2022-08-29T11:13:11.996Z,320.62
2022-08-29T11:14:11.992Z,354.38
2022-08-29T11:15:11.995Z,365.62
2022-08-29T11:16:12.004Z,388.12
2022-08-29T11:17:11.941Z,376.88
2022-08-29T11:18:12.006Z,388.12
2022-08-29T11:19:11.925Z,399.38
2022-08-29T11:20:11.921Z,399.38
2022-08-29T11:21:12.023Z,399.38
2022-08-29T11:22:11.925Z,393.75
2022-08-29T11:23:11.871Z,399.38
2022-08-29T11:24:11.866Z,410.62
2022-08-29T11:25:11.905Z,399.38
2022-08-29T11:26:11.858Z,393.75
2022-08-29T11:27:11.899Z,365.62
2022-08-29T11:28:11.889Z,365.62
2022-08-29T11:29:11.829Z,365.62
2022-08-29T11:30:11.823Z,376.88
2022-08-29T11:31:11.865Z,388.12
2022-08-29T11:32:11.846Z,388.12
2022-08-29T11:33:11.863Z,382.50
2022-08-29T11:34:11.781Z,388.12
2022-08-29T11:35:11.744Z,388.12
2022-08-29T11:36:11.798Z,376.88
2022-08-29T11:37:11.749Z,376.88
2022-08-29T11:38:11.749Z,371.25
2022-08-29T11:39:11.867Z,376.88
2022-08-29T11:40:11.729Z,382.50
2022-08-29T11:41:28.075Z,376.88
2022-08-29T11:42:13.765Z,388.12
2022-08-29T11:43:12.403Z,382.50
2022-08-29T11:44:11.634Z,376.88
2022-08-29T11:45:11.872Z,376.88
2022-08-29T11:46:11.656Z,376.88
2022-08-29T11:47:11.666Z,371.25
2022-08-29T11:48:11.650Z,303.75
2022-08-29T11:49:11.668Z,360.00
2022-08-29T11:50:11.587Z,303.75
2022-08-29T11:51:11.582Z,376.88
2022-08-29T11:52:11.597Z,365.62
2022-08-29T11:53:16.763Z,360.00
2022-08-29T11:54:11.675Z,371.25
2022-08-29T11:55:11.525Z,360.00
2022-08-29T11:56:11.517Z,348.75
2022-08-29T11:57:11.507Z,331.88
2022-08-29T11:58:12.040Z,365.62
2022-08-29T11:59:11.479Z,365.62
2022-08-29T12:00:11.479Z,376.88
2022-08-29T12:01:12.247Z,371.25
2022-08-29T12:02:11.625Z,371.25
2022-08-29T12:03:25.233Z,360.00
2022-08-29T12:04:11.465Z,365.62
2022-08-29T12:05:11.401Z,371.25
2022-08-29T12:06:11.450Z,376.88
2022-08-29T12:07:11.393Z,365.62
2022-08-29T12:08:35.571Z,376.88
2022-08-29T12:09:13.677Z,376.88
2022-08-29T12:10:12.405Z,376.88
2022-08-29T12:11:11.340Z,382.50
2022-08-29T12:12:11.331Z,376.88
2022-08-29T12:13:11.358Z,360.00
2022-08-29T12:14:11.340Z,376.88
2022-08-29T12:15:11.302Z,371.25
2022-08-29T12:16:11.379Z,365.62
2022-08-29T12:17:11.300Z,371.25
2022-08-29T12:18:11.284Z,360.00
2022-08-29T12:19:11.283Z,388.12
2022-08-29T12:20:11.292Z,337.50
2022-08-29T12:21:11.273Z,365.62
2022-08-29T12:22:22.151Z,393.75
2022-08-29T12:23:11.338Z,365.62
2022-08-29T12:24:11.247Z,376.88
2022-08-29T12:25:11.219Z,376.88
2022-08-29T12:26:22.044Z,405.00
2022-08-29T12:27:15.306Z,405.00
2022-08-29T12:28:11.149Z,405.00
2022-08-29T12:29:11.211Z,388.12
2022-08-29T12:30:11.147Z,399.38
2022-08-29T12:31:11.513Z,388.12
2022-08-29T12:32:22.710Z,393.75
2022-08-29T12:33:12.150Z,399.38
2022-08-29T12:34:11.106Z,399.38
2022-08-29T12:35:11.228Z,399.38
2022-08-29T12:36:11.074Z,405.00
2022-08-29T12:37:11.060Z,410.62
2022-08-29T12:38:11.093Z,405.00
2022-08-29T12:39:11.066Z,410.62
2022-08-29T12:40:11.393Z,382.50
2022-08-29T12:41:11.036Z,382.50
2022-08-29T12:42:11.017Z,371.25
2022-08-29T12:43:11.057Z,376.88
2022-08-29T12:44:10.991Z,371.25
2022-08-29T12:45:11.020Z,371.25
2022-08-29T12:46:10.957Z,388.12
2022-08-29T12:47:10.982Z,388.12
2022-08-29T12:48:10.981Z,382.50
2022-08-29T12:49:10.931Z,360.00
2022-08-29T12:50:10.980Z,376.88
2022-08-29T12:51:10.928Z,371.25
2022-08-29T12:52:10.901Z,343.12
2022-08-29T12:53:10.885Z,371.25
2022-08-29T12:54:10.869Z,382.50
2022-08-29T12:55:13.143Z,365.62
2022-08-29T12:56:10.862Z,360.00
2022-08-29T12:57:10.871Z,360.00
2022-08-29T12:58:10.879Z,360.00
2022-08-29T12:59:10.885Z,303.75
2022-08-29T13:00:10.807Z,315.00
2022-08-29T13:01:10.894Z,309.38
2022-08-29T13:02:10.820Z,315.00
2022-08-29T13:03:15.251Z,315.00
2022-08-29T13:04:10.786Z,320.62
2022-08-29T13:05:10.760Z,331.88
2022-08-29T13:06:10.779Z,331.88
2022-08-29T13:07:10.789Z,354.38
2022-08-29T13:08:13.087Z,343.12
2022-08-29T13:09:10.774Z,337.50
2022-08-29T13:10:11.723Z,343.12
2022-08-29T13:11:10.758Z,348.75
2022-08-29T13:12:10.693Z,326.25
2022-08-29T13:13:10.688Z,320.62
2022-08-29T13:14:10.689Z,337.50
2022-08-29T13:15:10.671Z,331.88
2022-08-29T13:16:10.741Z,298.12
2022-08-29T13:17:10.641Z,315.00
2022-08-29T13:18:10.620Z,343.12
2022-08-29T13:19:11.793Z,354.38
2022-08-29T13:20:10.619Z,360.00
2022-08-29T13:21:10.612Z,360.00
2022-08-29T13:22:10.617Z,360.00
2022-08-29T13:23:10.569Z,354.38
2022-08-29T13:24:10.570Z,360.00
2022-08-29T13:25:10.553Z,354.38
2022-08-29T13:26:11.158Z,354.38
2022-08-29T13:27:10.564Z,354.38
2022-08-29T13:28:10.530Z,354.38
2022-08-29T13:29:10.520Z,354.38
2022-08-29T13:30:10.482Z,354.38
2022-08-29T13:31:10.553Z,326.25
2022-08-29T13:32:10.521Z,309.38
2022-08-29T13:33:10.472Z,309.38
2022-08-29T13:34:10.460Z,320.62
2022-08-29T13:35:11.679Z,343.12
2022-08-29T13:36:10.452Z,365.62
2022-08-29T13:37:15.745Z,360.00
2022-08-29T13:38:10.407Z,354.38
2022-08-29T13:39:10.407Z,360.00
2022-08-29T13:40:10.604Z,365.62
2022-08-29T13:41:10.393Z,365.62
2022-08-29T13:42:10.364Z,365.62
2022-08-29T13:43:10.383Z,365.62
2022-08-29T13:44:10.344Z,365.62
2022-08-29T13:45:10.369Z,365.62
2022-08-29T13:46:14.513Z,365.62
2022-08-29T13:47:10.320Z,360.00
2022-08-29T13:48:10.325Z,365.62
2022-08-29T13:49:10.310Z,360.00
2022-08-29T13:50:10.290Z,371.25
2022-08-29T13:51:11.265Z,371.25
2022-08-29T13:52:10.270Z,376.88
2022-08-29T13:53:10.437Z,376.88
2022-08-29T13:54:10.231Z,376.88
2022-08-29T13:55:10.257Z,376.88
2022-08-29T13:56:10.221Z,376.88
2022-08-29T13:57:10.219Z,376.88
2022-08-29T13:58:10.235Z,376.88
2022-08-29T13:59:10.184Z,376.88
2022-08-29T14:00:10.174Z,365.62
2022-08-29T14:02:11.192Z,371.25
2022-08-29T14:03:10.259Z,371.25
2022-08-29T14:04:34.554Z,371.25
2022-08-29T14:05:10.142Z,371.25
2022-08-29T14:06:10.127Z,371.25
2022-08-29T14:07:10.118Z,365.62
2022-08-29T14:08:10.097Z,371.25
2022-08-29T14:09:10.114Z,371.25
2022-08-29T14:10:10.081Z,371.25
2022-08-29T14:11:11.255Z,371.25
2022-08-29T14:12:10.051Z,371.25
2022-08-29T14:13:10.051Z,371.25
2022-08-29T14:14:10.078Z,365.62
2022-08-29T14:15:10.127Z,326.25
2022-08-29T14:16:10.029Z,365.62
2022-08-29T14:17:10.022Z,365.62
2022-08-29T14:18:10.003Z,360.00
2022-08-29T14:19:10.033Z,348.75
2022-08-29T14:20:10.143Z,343.12
2022-08-29T14:21:09.959Z,320.62
2022-08-29T14:22:09.957Z,348.75
2022-08-29T14:23:09.944Z,354.38
2022-08-29T14:24:09.960Z,354.38
2022-08-29T14:25:09.926Z,348.75
2022-08-29T14:26:09.894Z,360.00
2022-08-29T14:27:09.894Z,354.38
2022-08-29T14:28:09.883Z,360.00
2022-08-29T14:29:09.875Z,348.75
2022-08-29T14:30:10.664Z,365.62
2022-08-29T14:31:09.893Z,365.62
2022-08-29T14:32:09.833Z,360.00
2022-08-29T14:33:09.834Z,365.62
2022-08-29T14:34:09.824Z,365.62
2022-08-29T14:35:09.840Z,365.62
2022-08-29T14:36:09.807Z,360.00
2022-08-29T14:37:09.787Z,354.38
2022-08-29T14:38:11.302Z,360.00
2022-08-29T14:39:09.797Z,348.75
2022-08-29T14:40:09.858Z,343.12
2022-08-29T14:41:09.753Z,331.88
2022-08-29T14:42:09.750Z,326.25
2022-08-29T14:43:09.731Z,331.88
2022-08-29T14:44:10.722Z,326.25
2022-08-29T14:45:09.756Z,320.62
2022-08-29T14:46:09.762Z,320.62
2022-08-29T14:47:09.737Z,320.62
2022-08-29T14:48:09.692Z,315.00
2022-08-29T14:49:09.679Z,309.38
2022-08-29T14:50:09.674Z,264.38
2022-08-29T14:51:09.708Z,264.38
2022-08-29T14:52:09.657Z,309.38
2022-08-29T14:53:09.630Z,292.50
2022-08-29T14:54:09.635Z,326.25
2022-08-29T14:55:09.597Z,326.25
2022-08-29T14:56:11.800Z,326.25
2022-08-29T14:57:09.597Z,326.25
2022-08-29T14:58:09.590Z,320.62
2022-08-29T14:59:09.579Z,309.38
2022-08-29T15:00:09.560Z,315.00
2022-08-29T15:01:09.669Z,309.38
2022-08-29T15:02:09.634Z,258.75
2022-08-29T15:03:09.601Z,264.38
2022-08-29T15:04:09.521Z,270.00
2022-08-29T15:05:09.508Z,281.25
2022-08-29T15:06:09.541Z,270.00
2022-08-29T15:07:09.482Z,258.75
2022-08-29T15:08:13.593Z,258.75
2022-08-29T15:09:09.466Z,253.12
2022-08-29T15:10:09.486Z,258.75
2022-08-29T15:11:09.428Z,247.50
2022-08-29T15:12:09.597Z,270.00
2022-08-29T15:13:09.424Z,298.12
2022-08-29T15:14:09.423Z,303.75
2022-08-29T15:15:09.419Z,303.75
2022-08-29T15:16:09.437Z,315.00
2022-08-29T15:17:09.543Z,315.00
2022-08-29T15:18:12.279Z,309.38
2022-08-29T15:21:09.344Z,258.75
2022-08-29T15:22:09.340Z,253.12
2022-08-29T15:23:09.315Z,253.12
2022-08-29T15:24:09.292Z,253.12
2022-08-29T15:25:10.358Z,270.00
2022-08-29T15:26:09.292Z,258.75
2022-08-29T15:27:09.335Z,247.50
2022-08-29T15:28:09.285Z,258.75
2022-08-29T15:29:09.317Z,281.25
2022-08-29T15:30:09.246Z,253.12
2022-08-29T15:31:09.277Z,253.12
2022-08-29T15:32:09.217Z,281.25
2022-08-29T15:33:09.236Z,270.00
2022-08-29T15:34:09.213Z,270.00
2022-08-29T15:35:14.189Z,264.38
2022-08-29T15:36:09.167Z,225.00
2022-08-29T15:37:09.155Z,225.00
2022-08-29T15:38:09.214Z,225.00
2022-08-29T15:39:09.130Z,247.50
2022-08-29T15:40:12.926Z,264.38
2022-08-29T15:41:09.113Z,264.38
2022-08-29T15:42:09.142Z,270.00
2022-08-29T15:43:09.138Z,270.00
2022-08-29T15:44:09.088Z,270.00
2022-08-29T15:45:09.091Z,264.38
2022-08-29T15:46:09.165Z,253.12
2022-08-29T15:47:11.032Z,253.12
2022-08-29T15:48:14.296Z,247.50
2022-08-29T15:49:09.027Z,253.12
2022-08-29T15:50:09.027Z,219.38
2022-08-29T15:51:09.112Z,213.75
2022-08-29T15:52:08.994Z,213.75
2022-08-29T15:53:08.997Z,219.38
2022-08-29T15:54:08.973Z,213.75
2022-08-29T15:55:08.977Z,213.75
2022-08-29T15:56:08.963Z,225.00
2022-08-29T15:57:08.950Z,230.62
2022-08-29T15:58:08.983Z,241.88
2022-08-29T15:59:08.954Z,236.25
2022-08-29T16:00:08.901Z,230.62
2022-08-29T16:01:08.960Z,225.00
2022-08-29T16:02:08.908Z,219.38
2022-08-29T16:03:08.922Z,213.75
2022-08-29T16:04:08.891Z,202.50
2022-08-29T16:05:08.846Z,202.50
2022-08-29T16:06:08.846Z,202.50
2022-08-29T16:07:08.842Z,191.25
2022-08-29T16:08:14.770Z,180.00
2022-08-29T16:09:15.263Z,157.50
2022-08-29T16:10:10.955Z,157.50
2022-08-29T16:11:08.805Z,163.12
2022-08-29T16:12:08.770Z,174.38
2022-08-29T16:13:08.747Z,157.50
2022-08-29T16:15:09.929Z,146.25
2022-08-29T16:16:08.796Z,151.88
2022-08-29T16:17:08.715Z,151.88
2022-08-29T16:18:08.713Z,146.25
2022-08-29T16:19:09.178Z,146.25
2022-08-29T16:20:08.925Z,140.62
2022-08-29T16:21:08.653Z,135.00
2022-08-29T16:22:08.656Z,135.00
2022-08-29T16:23:08.636Z,140.62
2022-08-29T16:24:08.625Z,140.62
2022-08-29T16:25:08.662Z,146.25
2022-08-29T16:26:08.616Z,146.25
2022-08-29T16:27:08.670Z,146.25
2022-08-29T16:28:08.624Z,151.88
2022-08-29T16:29:08.759Z,157.50
2022-08-29T16:30:08.652Z,163.12
2022-08-29T16:31:08.665Z,163.12
2022-08-29T16:32:08.594Z,168.75
2022-08-29T16:33:08.536Z,157.50
2022-08-29T16:34:08.527Z,174.38
2022-08-29T16:35:08.572Z,168.75
2022-08-29T16:36:08.493Z,174.38
2022-08-29T16:37:08.491Z,168.75
2022-08-29T16:38:08.469Z,151.88
2022-08-29T16:39:08.444Z,146.25
2022-08-29T16:40:08.562Z,146.25
2022-08-29T16:41:08.496Z,146.25
2022-08-29T16:42:08.412Z,146.25
2022-08-29T16:43:08.422Z,140.62
2022-08-29T16:56:32.452Z,135.00
2022-08-29T16:57:31.225Z,135.00
2022-08-29T16:58:31.081Z,135.00
2022-08-29T16:59:31.064Z,123.75
2022-08-29T17:00:31.071Z,112.50
2022-08-29T17:01:31.099Z,106.88
2022-08-29T17:02:31.165Z,101.25
2022-08-29T17:03:31.014Z,95.62
2022-08-29T17:04:31.028Z,95.62
2022-08-29T17:05:30.981Z,101.25
2022-08-29T17:06:31.022Z,95.62
2022-08-29T17:07:30.961Z,90.00
2022-08-29T17:08:30.965Z,90.00
2022-08-29T17:09:30.939Z,90.00
2022-08-29T17:10:30.905Z,95.62
2022-08-29T17:11:30.991Z,101.25
2022-08-29T17:12:30.888Z,101.25
2022-08-29T17:13:31.094Z,95.62
2022-08-29T17:14:30.901Z,101.25
2022-08-29T17:15:30.856Z,101.25
2022-08-29T17:16:32.219Z,101.25
2022-08-29T17:17:32.023Z,95.62
2022-08-29T17:18:32.024Z,95.62
2022-08-29T17:19:33.151Z,90.00
2022-08-29T17:20:36.806Z,90.00
2022-08-29T17:21:31.995Z,90.00
2022-08-29T17:22:31.955Z,84.38
2022-08-29T17:23:31.984Z,84.38
2022-08-29T17:24:31.887Z,84.38
2022-08-29T17:25:31.939Z,84.38
2022-08-29T17:26:31.907Z,78.75
2022-08-29T17:27:31.869Z,78.75
2022-08-29T17:28:31.876Z,78.75
2022-08-29T17:29:31.857Z,73.12
2022-08-29T17:30:31.937Z,73.12
2022-08-29T17:31:31.798Z,67.50
2022-08-29T17:32:31.881Z,67.50
2022-08-29T17:33:31.778Z,67.50
2022-08-29T17:34:31.820Z,61.88
2022-08-29T17:35:31.819Z,61.88
2022-08-29T17:36:31.824Z,61.88
2022-08-29T17:37:36.245Z,61.88
2022-08-29T17:38:31.755Z,56.25
2022-08-29T17:39:31.746Z,56.25
2022-08-29T17:40:31.794Z,50.62
2022-08-29T17:41:31.743Z,50.62
2022-08-29T17:42:31.729Z,50.62
2022-08-29T17:43:31.754Z,50.62
2022-08-29T17:44:31.707Z,45.00
2022-08-29T17:45:31.629Z,45.00
2022-08-29T17:46:31.691Z,45.00
2022-08-29T17:47:31.674Z,45.00
2022-08-29T17:48:31.656Z,45.00
2022-08-29T17:49:31.641Z,39.38
2022-08-29T17:50:31.788Z,39.38
2022-08-29T17:51:31.555Z,39.38
2022-08-29T17:52:31.584Z,39.38
2022-08-29T17:53:31.537Z,39.38
2022-08-29T17:54:31.580Z,33.75
2022-08-29T17:55:31.520Z,33.75
2022-08-29T17:56:31.544Z,33.75
2022-08-29T17:57:31.461Z,28.12
2022-08-29T17:58:31.501Z,28.12
2022-08-29T17:59:31.492Z,28.12
2022-08-29T18:00:31.502Z,22.50
2022-08-29T18:01:32.221Z,22.50
2022-08-29T18:02:31.460Z,22.50
2022-08-29T18:03:32.276Z,16.88
2022-08-29T18:04:33.934Z,16.88
2022-08-29T18:05:31.974Z,16.88
2022-08-29T18:06:32.684Z,16.88
2022-08-29T18:07:32.733Z,11.25
2022-08-29T19:00:35.502Z,0.00
2022-08-29T19:01:35.488Z,0.00
2022-08-29T19:02:35.185Z,0.00
2022-08-29T19:03:34.834Z,0.00
2022-08-29T19:04:34.946Z,0.00
2022-08-29T19:05:34.633Z,0.00
2022-08-29T19:06:34.649Z,0.00
2022-08-29T19:07:34.938Z,0.00
2022-08-29T19:08:34.549Z,0.00
2022-08-29T19:09:34.635Z,0.00
2022-08-29T19:10:34.967Z,0.00
2022-08-29T19:11:34.528Z,0.00
2022-08-29T19:12:34.673Z,0.00
2022-08-29T19:13:34.612Z,0.00
2022-08-29T19:14:37.249Z,0.00
2022-08-29T19:15:34.501Z,0.00
2022-08-29T19:16:34.545Z,0.00
2022-08-29T19:17:34.425Z,0.00
2022-08-29T19:18:34.479Z,0.00
2022-08-29T19:19:34.480Z,0.00
2022-08-29T19:20:34.616Z,0.00
2022-08-29T19:21:34.367Z,0.00
2022-08-29T19:22:34.644Z,0.00
2022-08-29T19:23:34.592Z,0.00
2022-08-29T19:24:34.342Z,0.00
2022-08-29T19:25:34.385Z,0.00
2022-08-29T19:26:34.271Z,0.00
2022-08-29T19:27:43.177Z,0.00
2022-08-29T19:28:34.413Z,0.00
2022-08-29T19:29:34.304Z,0.00
2022-08-29T19:30:34.416Z,0.00
2022-08-29T19:31:34.455Z,0.00
2022-08-29T19:32:34.165Z,0.00
2022-08-29T19:33:34.182Z,0.00
2022-08-29T19:34:34.262Z,0.00
2022-08-29T20:47:14.740Z,0.00
2022-08-29T20:48:17.511Z,0.00
